Impacts METAR Board
IDs:

KCVG - Cincinnati Intl, KY, US

Updated at: 0000 UTC 27 Apr 2018
Potential Impact None Slight Moderate High
Time 26/12Z 26/13Z 26/14Z 26/15Z 26/16Z 26/17Z 26/18Z 26/19Z 26/20Z 26/21Z 26/22Z 26/23Z 27/00Z
Temp43 48 51 56 60 63 66 66 67 67 66 67 65
Dewpt34 34 36 39 39 39 37 32 34 34 32 31 31
Altim29.89 29.91 29.93 29.93 29.92 29.90 29.88 29.86 29.84 29.83 29.83 29.84 29.83
VIS10 10 10 10 10 10 10 10 10 10 10 10 10
CIG-- -- -- -- -- -- -- 300 300 300 230 220 160
CoverFEWFEWSCTSCTSCTSCTSCTBKNBKNBKNBKNBKNBKN
FltCatVFRVFRVFRVFRVFRVFRVFRVFRVFRVFRVFRVFRVFR
WX--------------------------
WDir3502005000250290330320000
WSpd6 4 0 4 0 0 6 7 3 4 0 0 0
WGst-- -- -- -- -- -- -- -- -- -- -- -- --
Raw hourly METARs
KCVG 261152Z 35006KT 10SM FEW140 FEW250 06/01 A2989 RMK AO2 SLP121 T00610011 10094 20050 53000
KCVG 261252Z 02004KT 10SM FEW250 09/01 A2991 RMK AO2 SLP124 T00890011
KCVG 261352Z 00000KT 10SM SCT250 11/02 A2993 RMK AO2 SLP133 T01060022
KCVG 261452Z 05004KT 10SM FEW250 SCT300 13/04 A2993 RMK AO2 SLP132 T01330039 50012
KCVG 261552Z 00000KT 10SM FEW250 SCT300 16/04 A2992 RMK AO2 SLP128 T01560039
KCVG 261652Z 00000KT 10SM SCT300 17/04 A2990 RMK AO2 SLP120 T01720039
KCVG 261752Z 25006KT 10SM FEW065 SCT300 19/03 A2988 RMK AO2 SLP112 T01890028 10189 20061 58018
KCVG 261852Z 29007KT 10SM FEW070 FEW250 BKN300 19/00 A2986 RMK AO2 SLP108 T01890000
KCVG 261952Z 33003KT 10SM FEW070 FEW210 SCT250 BKN300 19/01 A2984 RMK AO2 SLP101 VIRGA E-S T01940011
KCVG 262052Z 32004KT 10SM FEW075 FEW200 SCT250 BKN300 19/01 A2983 RMK AO2 SLP096 VIRGA S T01940011 57016
KCVG 262152Z 00000KT 10SM FEW075 BKN230 BKN300 19/00 A2983 RMK AO2 SLP098 T01890000
KCVG 262252Z 00000KT 10SM FEW070 FEW160 BKN220 BKN300 19/M01 A2984 RMK AO2 SLP101 T01941006
KCVG 262352Z 00000KT 10SM BKN160 BKN230 BKN300 18/M01 A2983 RMK AO2 SLP098 T01831006 10194 20183 50001



Page loaded:  00:58 UTC  |   05:58 PM Pacific  |   06:58 PM Mountain  |   07:58 PM Central  |   08:58 PM Eastern

 

ADVISORIES

FORECASTS

FORECASTS

OBSERVATIONS

USER TOOLS

ABOUT US